Terminal Aerodrome Forecast
Issued by NWS

Home | Current Version | Previous Version | Text Only | Print | Product List | Glossary On
Versions: 1 2 3 4 5 6 7 8 9 10 11 12 13 14 15 16 17 18 19 20 21 22 23 24 25
000
FTUS45 KVEF 210528
TAFLAS
TAF
KLAS 210528Z 2106/2212 21018G26KT P6SM SKC
     FM212000 20025G35KT P6SM FEW080 BKN200
     FM220200 23012G18KT P6SM FEW080 FEW200
     FM220500 32012KT P6SM FEW080 FEW200=

USA.gov is the U.S. government's official web portal to all federal, state and local government web resources and services.